sensor_id;sensor_type;location;lat;lon;timestamp;pressure;altitude;pressure_sealevel;temperature;humidity
12757;BME280;31601;48.042;12.240;2023-04-23T00:01:07;95600.81;;;13.44;60.77
12757;BME280;31601;48.042;12.240;2023-04-23T00:03:35;95595.69;;;13.49;60.52
12757;BME280;31601;48.042;12.240;2023-04-23T00:06:03;95604.16;;;13.51;60.31
12757;BME280;31601;48.042;12.240;2023-04-23T00:08:31;95593.78;;;13.56;60.17
12757;BME280;31601;48.042;12.240;2023-04-23T00:11:01;95598.09;;;13.51;60.98
12757;BME280;31601;48.042;12.240;2023-04-23T00:13:27;95593.13;;;13.42;60.86
12757;BME280;31601;48.042;12.240;2023-04-23T00:15:55;95593.13;;;13.42;61.04
12757;BME280;31601;48.042;12.240;2023-04-23T00:18:21;95599.28;;;13.55;60.55
12757;BME280;31601;48.042;12.240;2023-04-23T00:20:48;95594.38;;;13.58;60.35
12757;BME280;31601;48.042;12.240;2023-04-23T00:23:14;95593.13;;;13.61;60.41
12757;BME280;31601;48.042;12.240;2023-04-23T00:25:40;95587.66;;;13.63;60.45
12757;BME280;31601;48.042;12.240;2023-04-23T00:28:08;95588.44;;;13.63;60.54
12757;BME280;31601;48.042;12.240;2023-04-23T00:30:35;95580.41;;;13.58;60.92
12757;BME280;31601;48.042;12.240;2023-04-23T00:33:01;95592.09;;;13.62;60.80
12757;BME280;31601;48.042;12.240;2023-04-23T00:35:28;95592.09;;;13.62;60.83
12757;BME280;31601;48.042;12.240;2023-04-23T00:37:54;95591.44;;;13.67;60.92
12757;BME280;31601;48.042;12.240;2023-04-23T00:40:21;95587.66;;;13.63;61.51
12757;BME280;31601;48.042;12.240;2023-04-23T00:42:47;95593.06;;;13.68;61.48
12757;BME280;31601;48.042;12.240;2023-04-23T00:45:17;95593.06;;;13.68;61.65
12757;BME280;31601;48.042;12.240;2023-04-23T00:47:44;95582.50;;;13.68;61.53
12757;BME280;31601;48.042;12.240;2023-04-23T00:50:11;95588.44;;;13.63;61.54
12757;BME280;31601;48.042;12.240;2023-04-23T00:52:39;95586.31;;;13.53;61.91
12757;BME280;31601;48.042;12.240;2023-04-23T00:55:06;95581.53;;;13.43;62.02
12757;BME280;31601;48.042;12.240;2023-04-23T00:57:33;95582.94;;;13.46;61.72
12757;BME280;31601;48.042;12.240;2023-04-23T01:00:00;95584.38;;;13.42;61.96
12757;BME280;31601;48.042;12.240;2023-04-23T01:02:29;95581.97;;;13.40;61.98
12757;BME280;31601;48.042;12.240;2023-04-23T01:04:57;95579.19;;;13.35;61.84
12757;BME280;31601;48.042;12.240;2023-04-23T01:07:25;95581.25;;;13.26;61.86
12757;BME280;31601;48.042;12.240;2023-04-23T01:09:52;95587.22;;;13.40;61.57
12757;BME280;31601;48.042;12.240;2023-04-23T01:12:19;95579.72;;;13.44;61.60
12757;BME280;31601;48.042;12.240;2023-04-23T01:14:45;95580.09;;;13.48;61.60
12757;BME280;31601;48.042;12.240;2023-04-23T01:17:12;95584.78;;;13.46;61.54
12757;BME280;31601;48.042;12.240;2023-04-23T01:19:40;95584.84;;;13.32;62.10
12757;BME280;31601;48.042;12.240;2023-04-23T01:22:09;95580.59;;;13.31;61.95
12757;BME280;31601;48.042;12.240;2023-04-23T01:24:36;95586.44;;;13.40;61.74
12757;BME280;31601;48.042;12.240;2023-04-23T01:27:03;95583.38;;;13.43;61.84
12757;BME280;31601;48.042;12.240;2023-04-23T01:29:31;95582.34;;;13.44;61.90
12757;BME280;31601;48.042;12.240;2023-04-23T01:31:58;95586.38;;;13.47;61.94
12757;BME280;31601;48.042;12.240;2023-04-23T01:34:25;95589.38;;;13.50;62.04
12757;BME280;31601;48.042;12.240;2023-04-23T01:36:52;95587.56;;;13.51;61.90
12757;BME280;31601;48.042;12.240;2023-04-23T01:39:20;95589.16;;;13.52;62.02
12757;BME280;31601;48.042;12.240;2023-04-23T01:41:47;95590.41;;;13.49;62.03
12757;BME280;31601;48.042;12.240;2023-04-23T01:44:14;95585.94;;;13.50;62.23
12757;BME280;31601;48.042;12.240;2023-04-23T01:46:41;95587.56;;;13.51;62.20
12757;BME280;31601;48.042;12.240;2023-04-23T01:49:07;95585.13;;;13.49;62.42
12757;BME280;31601;48.042;12.240;2023-04-23T01:51:33;95587.19;;;13.47;62.45
12757;BME280;31601;48.042;12.240;2023-04-23T01:54:00;95592.47;;;13.47;62.41
12757;BME280;31601;48.042;12.240;2023-04-23T01:56:28;95585.34;;;13.48;62.84
12757;BME280;31601;48.042;12.240;2023-04-23T01:58:55;95587.00;;;13.42;63.03
12757;BME280;31601;48.042;12.240;2023-04-23T02:01:21;95589.66;;;13.42;63.19
12757;BME280;31601;48.042;12.240;2023-04-23T02:03:48;95591.50;;;13.41;63.21
12757;BME280;31601;48.042;12.240;2023-04-23T02:06:15;95586.22;;;13.41;63.29
12757;BME280;31601;48.042;12.240;2023-04-23T02:08:42;95585.22;;;13.42;63.40
12757;BME280;31601;48.042;12.240;2023-04-23T02:11:08;95586.00;;;13.43;63.37
12757;BME280;31601;48.042;12.240;2023-04-23T02:13:36;95589.44;;;13.43;63.28
12757;BME280;31601;48.042;12.240;2023-04-23T02:16:03;95592.06;;;13.43;62.92
12757;BME280;31601;48.042;12.240;2023-04-23T02:18:29;95581.97;;;13.40;63.33
12757;BME280;31601;48.042;12.240;2023-04-23T02:20:56;95580.88;;;13.23;64.14
12757;BME280;31601;48.042;12.240;2023-04-23T02:23:23;95586.00;;;13.18;64.51
12757;BME280;31601;48.042;12.240;2023-04-23T02:25:50;95578.47;;;13.21;64.51
12757;BME280;31601;48.042;12.240;2023-04-23T02:28:16;95573.56;;;13.25;64.29
12757;BME280;31601;48.042;12.240;2023-04-23T02:30:44;95576.94;;;13.32;64.22
12757;BME280;31601;48.042;12.240;2023-04-23T02:33:12;95575.53;;;13.36;64.04
12757;BME280;31601;48.042;12.240;2023-04-23T02:35:38;95577.16;;;13.31;64.11
12757;BME280;31601;48.042;12.240;2023-04-23T02:38:05;95575.75;;;13.28;64.21
12757;BME280;31601;48.042;12.240;2023-04-23T02:40:32;95572.34;;;13.28;64.25
12757;BME280;31601;48.042;12.240;2023-04-23T02:42:58;95574.00;;;13.22;64.10
12757;BME280;31601;48.042;12.240;2023-04-23T02:45:24;95578.41;;;13.28;63.79
12757;BME280;31601;48.042;12.240;2023-04-23T02:47:52;95577.66;;;13.21;64.26
12757;BME280;31601;48.042;12.240;2023-04-23T02:50:19;95582.13;;;13.20;64.31
12757;BME280;31601;48.042;12.240;2023-04-23T02:52:45;95580.88;;;13.23;64.15
12757;BME280;31601;48.042;12.240;2023-04-23T02:55:13;95580.53;;;13.19;64.16
12757;BME280;31601;48.042;12.240;2023-04-23T02:57:40;95585.59;;;13.14;64.42
12757;BME280;31601;48.042;12.240;2023-04-23T03:00:07;95581.84;;;13.03;64.64
12757;BME280;31601;48.042;12.240;2023-04-23T03:02:36;95571.38;;;12.97;64.47
12757;BME280;31601;48.042;12.240;2023-04-23T03:05:04;95573.47;;;12.88;65.25
12757;BME280;31601;48.042;12.240;2023-04-23T03:07:31;95568.47;;;12.80;65.84
12757;BME280;31601;48.042;12.240;2023-04-23T03:09:58;95571.44;;;12.90;65.15
12757;BME280;31601;48.042;12.240;2023-04-23T03:12:24;95573.47;;;12.88;65.35
12757;BME280;31601;48.042;12.240;2023-04-23T03:14:51;95561.66;;;12.97;65.02
12757;BME280;31601;48.042;12.240;2023-04-23T03:17:17;95560.28;;;12.88;65.13
12757;BME280;31601;48.042;12.240;2023-04-23T03:19:43;95574.72;;;12.85;65.58
12757;BME280;31601;48.042;12.240;2023-04-23T03:22:11;95575.88;;;12.89;65.28
12757;BME280;31601;48.042;12.240;2023-04-23T03:24:38;95576.84;;;12.95;65.03
12757;BME280;31601;48.042;12.240;2023-04-23T03:27:04;95574.81;;;12.97;65.08
12757;BME280;31601;48.042;12.240;2023-04-23T03:29:30;95583.09;;;13.01;65.04
12757;BME280;31601;48.042;12.240;2023-04-23T03:31:57;95577.63;;;13.02;65.06
12757;BME280;31601;48.042;12.240;2023-04-23T03:34:23;95578.41;;;13.03;65.07
12757;BME280;31601;48.042;12.240;2023-04-23T03:36:50;95573.72;;;13.05;64.91
12757;BME280;31601;48.042;12.240;2023-04-23T03:39:17;95587.13;;;13.03;64.98
12757;BME280;31601;48.042;12.240;2023-04-23T03:41:44;95583.91;;;13.01;64.90
12757;BME280;31601;48.042;12.240;2023-04-23T03:44:10;95584.47;;;13.03;64.96
12757;BME280;31601;48.042;12.240;2023-04-23T03:46:37;95583.47;;;13.04;64.94
12757;BME280;31601;48.042;12.240;2023-04-23T03:49:03;95584.69;;;13.02;65.02
12757;BME280;31601;48.042;12.240;2023-04-23T03:51:30;95592.00;;;13.00;65.10
12757;BME280;31601;48.042;12.240;2023-04-23T03:53:57;95590.38;;;12.99;65.06
12757;BME280;31601;48.042;12.240;2023-04-23T03:56:24;95590.25;;;12.94;65.20
12757;BME280;31601;48.042;12.240;2023-04-23T03:58:51;95599.38;;;12.91;65.28
12757;BME280;31601;48.042;12.240;2023-04-23T04:01:17;95590.66;;;12.90;65.10
12757;BME280;31601;48.042;12.240;2023-04-23T04:03:43;95599.97;;;12.93;65.10
12757;BME280;31601;48.042;12.240;2023-04-23T04:06:10;95595.13;;;12.90;65.18
12757;BME280;31601;48.042;12.240;2023-04-23T04:08:36;95602.19;;;12.96;65.18
12757;BME280;31601;48.042;12.240;2023-04-23T04:11:03;95594.06;;;12.98;65.07
12757;BME280;31601;48.042;12.240;2023-04-23T04:13:30;95594.44;;;13.01;64.94
12757;BME280;31601;48.042;12.240;2023-04-23T04:15:57;95600.91;;;13.05;65.00
12757;BME280;31601;48.042;12.240;2023-04-23T04:18:23;95596.06;;;13.02;65.10
12757;BME280;31601;48.042;12.240;2023-04-23T04:20:50;95608.19;;;13.03;65.23
12757;BME280;31601;48.042;12.240;2023-04-23T04:23:18;95602.41;;;12.88;65.62
12757;BME280;31601;48.042;12.240;2023-04-23T04:25:45;95603.19;;;12.95;65.58
12757;BME280;31601;48.042;12.240;2023-04-23T04:28:11;95607.09;;;12.86;66.24
12757;BME280;31601;48.042;12.240;2023-04-23T04:30:39;95611.72;;;12.90;66.39
12757;BME280;31601;48.042;12.240;2023-04-23T04:33:06;95607.59;;;13.01;65.96
12757;BME280;31601;48.042;12.240;2023-04-23T04:35:33;95610.16;;;13.08;65.77
12757;BME280;31601;48.042;12.240;2023-04-23T04:37:59;95617.00;;;13.16;65.77
12757;BME280;31601;48.042;12.240;2023-04-23T04:40:26;95623.47;;;13.20;65.65
12757;BME280;31601;48.042;12.240;2023-04-23T04:42:53;95627.88;;;13.26;65.58
12757;BME280;31601;48.042;12.240;2023-04-23T04:45:20;95620.53;;;13.28;65.49
12757;BME280;31601;48.042;12.240;2023-04-23T04:47:48;95629.66;;;13.32;65.54
12757;BME280;31601;48.042;12.240;2023-04-23T04:50:15;95630.25;;;13.34;65.49
12757;BME280;31601;48.042;12.240;2023-04-23T04:52:42;95633.50;;;13.36;65.49
12757;BME280;31601;48.042;12.240;2023-04-23T04:55:08;95628.25;;;13.30;65.66
12757;BME280;31601;48.042;12.240;2023-04-23T04:57:35;95616.47;;;13.32;65.86
12757;BME280;31601;48.042;12.240;2023-04-23T05:00:18;95628.97;;;13.43;65.62
12757;BME280;31601;48.042;12.240;2023-04-23T05:02:46;95624.00;;;13.54;65.55
12757;BME280;31601;48.042;12.240;2023-04-23T05:05:15;95628.41;;;13.60;65.32
12757;BME280;31601;48.042;12.240;2023-04-23T05:07:41;95629.59;;;13.64;65.34
12757;BME280;31601;48.042;12.240;2023-04-23T05:10:08;95630.97;;;13.67;65.28
12757;BME280;31601;48.042;12.240;2023-04-23T05:12:35;95633.28;;;13.82;64.64
12757;BME280;31601;48.042;12.240;2023-04-23T05:15:06;95635.59;;;13.90;64.37
12757;BME280;31601;48.042;12.240;2023-04-23T05:17:33;95638.63;;;13.93;64.17
12757;BME280;31601;48.042;12.240;2023-04-23T05:19:59;95640.63;;;13.98;64.02
12757;BME280;31601;48.042;12.240;2023-04-23T05:22:27;95635.34;;;13.98;64.11
12757;BME280;31601;48.042;12.240;2023-04-23T05:24:53;95642.44;;;13.97;64.19
12757;BME280;31601;48.042;12.240;2023-04-23T05:27:20;95647.91;;;13.96;64.39
12757;BME280;31601;48.042;12.240;2023-04-23T05:29:46;95651.84;;;13.68;65.88
12757;BME280;31601;48.042;12.240;2023-04-23T05:32:13;95651.28;;;13.85;65.12
12757;BME280;31601;48.042;12.240;2023-04-23T05:34:39;95652.91;;;13.86;65.30
12757;BME280;31601;48.042;12.240;2023-04-23T05:37:05;95660.97;;;13.91;65.48
12757;BME280;31601;48.042;12.240;2023-04-23T05:39:33;95657.44;;;13.97;65.29
12757;BME280;31601;48.042;12.240;2023-04-23T05:42:00;95663.91;;;14.01;65.23
12757;BME280;31601;48.042;12.240;2023-04-23T05:44:27;95656.50;;;13.91;65.83
12757;BME280;31601;48.042;12.240;2023-04-23T05:46:53;95665.81;;;13.94;65.68
12757;BME280;31601;48.042;12.240;2023-04-23T05:49:19;95677.53;;;13.98;65.71
12757;BME280;31601;48.042;12.240;2023-04-23T05:51:46;95674.81;;;14.05;65.72
12757;BME280;31601;48.042;12.240;2023-04-23T05:54:12;95681.28;;;14.09;66.07
12757;BME280;31601;48.042;12.240;2023-04-23T05:56:40;95693.38;;;14.17;65.77
12757;BME280;31601;48.042;12.240;2023-04-23T05:59:06;95699.34;;;14.05;66.79
12757;BME280;31601;48.042;12.240;2023-04-23T06:01:33;95700.59;;;13.84;67.88
12757;BME280;31601;48.042;12.240;2023-04-23T06:04:00;95703.13;;;13.72;67.34
12757;BME280;31601;48.042;12.240;2023-04-23T06:06:26;95706.94;;;13.76;67.83
12757;BME280;31601;48.042;12.240;2023-04-23T06:08:53;95714.03;;;13.76;67.84
12757;BME280;31601;48.042;12.240;2023-04-23T06:11:19;95714.56;;;13.85;67.36
12757;BME280;31601;48.042;12.240;2023-04-23T06:13:47;95718.09;;;13.97;67.27
12757;BME280;31601;48.042;12.240;2023-04-23T06:16:14;95715.94;;;14.12;66.95
12757;BME280;31601;48.042;12.240;2023-04-23T06:18:40;95709.13;;;14.23;66.86
12757;BME280;31601;48.042;12.240;2023-04-23T06:21:07;95710.09;;;14.29;66.83
12757;BME280;31601;48.042;12.240;2023-04-23T06:23:33;95711.75;;;14.42;66.55
12757;BME280;31601;48.042;12.240;2023-04-23T06:26:00;95715.28;;;14.36;65.75
12757;BME280;31601;48.042;12.240;2023-04-23T06:28:28;95709.91;;;14.42;65.43
12757;BME280;31601;48.042;12.240;2023-04-23T06:30:56;95713.16;;;14.44;65.43
12757;BME280;31601;48.042;12.240;2023-04-23T06:33:22;95717.13;;;14.54;65.36
12757;BME280;31601;48.042;12.240;2023-04-23T06:35:48;95722.09;;;14.43;66.39
12757;BME280;31601;48.042;12.240;2023-04-23T06:38:16;95717.25;;;14.59;66.18
12757;BME280;31601;48.042;12.240;2023-04-23T06:40:45;95719.91;;;14.59;66.94
12757;BME280;31601;48.042;12.240;2023-04-23T06:43:11;95713.41;;;14.61;67.37
12757;BME280;31601;48.042;12.240;2023-04-23T06:45:38;95714.94;;;14.32;68.54
12757;BME280;31601;48.042;12.240;2023-04-23T06:48:06;95710.22;;;14.34;68.61
12757;BME280;31601;48.042;12.240;2023-04-23T06:50:32;95707.66;;;14.27;69.06
12757;BME280;31601;48.042;12.240;2023-04-23T06:52:59;95713.97;;;14.26;69.09
12757;BME280;31601;48.042;12.240;2023-04-23T06:55:25;95714.09;;;14.31;68.86
12757;BME280;31601;48.042;12.240;2023-04-23T06:57:53;95712.84;;;14.53;68.45
12757;BME280;31601;48.042;12.240;2023-04-23T07:00:20;95713.59;;;14.78;67.74
12757;BME280;31601;48.042;12.240;2023-04-23T07:02:47;95713.41;;;14.92;67.32
12757;BME280;31601;48.042;12.240;2023-04-23T07:05:15;95710.09;;;14.96;66.80
12757;BME280;31601;48.042;12.240;2023-04-23T07:07:42;95717.91;;;15.21;66.32
12757;BME280;31601;48.042;12.240;2023-04-23T07:10:10;95714.28;;;15.58;65.44
12757;BME280;31601;48.042;12.240;2023-04-23T07:12:37;95717.28;;;15.73;65.23
12757;BME280;31601;48.042;12.240;2023-04-23T07:15:04;95719.16;;;15.97;64.81
12757;BME280;31601;48.042;12.240;2023-04-23T07:17:31;95713.94;;;16.37;64.02
12757;BME280;31601;48.042;12.240;2023-04-23T07:19:58;95724.38;;;16.68;63.44
12757;BME280;31601;48.042;12.240;2023-04-23T07:22:25;95713.03;;;16.84;62.64
12757;BME280;31601;48.042;12.240;2023-04-23T07:24:52;95718.94;;;17.15;61.95
12757;BME280;31601;48.042;12.240;2023-04-23T07:27:18;95718.25;;;17.36;61.64
12757;BME280;31601;48.042;12.240;2023-04-23T07:29:45;95717.91;;;16.87;62.05
12757;BME280;31601;48.042;12.240;2023-04-23T07:32:11;95719.06;;;16.68;61.47
12757;BME280;31601;48.042;12.240;2023-04-23T07:34:37;95716.97;;;16.70;62.11
12757;BME280;31601;48.042;12.240;2023-04-23T07:37:04;95716.41;;;16.68;62.18
12757;BME280;31601;48.042;12.240;2023-04-23T07:39:32;95717.25;;;16.56;62.12
12757;BME280;31601;48.042;12.240;2023-04-23T07:41:59;95711.56;;;16.76;61.47
12757;BME280;31601;48.042;12.240;2023-04-23T07:44:26;95721.63;;;16.62;61.93
12757;BME280;31601;48.042;12.240;2023-04-23T07:46:52;95718.28;;;16.55;62.04
12757;BME280;31601;48.042;12.240;2023-04-23T07:49:18;95718.81;;;15.93;63.42
12757;BME280;31601;48.042;12.240;2023-04-23T07:51:45;95719.41;;;15.95;62.76
12757;BME280;31601;48.042;12.240;2023-04-23T07:54:12;95714.31;;;15.82;63.30
12757;BME280;31601;48.042;12.240;2023-04-23T07:56:40;95725.63;;;16.01;62.83
12757;BME280;31601;48.042;12.240;2023-04-23T07:59:07;95725.38;;;15.79;63.37
12757;BME280;31601;48.042;12.240;2023-04-23T08:01:34;95721.22;;;15.71;63.11
12757;BME280;31601;48.042;12.240;2023-04-23T08:04:00;95720.25;;;15.42;64.75
12757;BME280;31601;48.042;12.240;2023-04-23T08:06:27;95732.16;;;15.32;65.00
12757;BME280;31601;48.042;12.240;2023-04-23T08:08:55;95724.81;;;15.34;65.28
12757;BME280;31601;48.042;12.240;2023-04-23T08:11:22;95726.06;;;15.32;64.66
12757;BME280;31601;48.042;12.240;2023-04-23T08:13:50;95723.56;;;15.49;64.60
12757;BME280;31601;48.042;12.240;2023-04-23T08:16:17;95713.72;;;15.56;64.43
12757;BME280;31601;48.042;12.240;2023-04-23T08:18:43;95724.47;;;15.43;63.96
12757;BME280;31601;48.042;12.240;2023-04-23T08:21:09;95720.09;;;15.36;64.71
12757;BME280;31601;48.042;12.240;2023-04-23T08:23:37;95718.13;;;15.86;63.56
12757;BME280;31601;48.042;12.240;2023-04-23T08:26:03;95717.16;;;15.45;63.49
12757;BME280;31601;48.042;12.240;2023-04-23T08:28:29;95704.00;;;15.80;62.61
12757;BME280;31601;48.042;12.240;2023-04-23T08:30:57;95701.91;;;16.06;61.72
12757;BME280;31601;48.042;12.240;2023-04-23T08:33:24;95705.69;;;15.74;61.80
12757;BME280;31601;48.042;12.240;2023-04-23T08:35:50;95702.13;;;15.92;61.97
12757;BME280;31601;48.042;12.240;2023-04-23T08:38:17;95706.03;;;15.78;62.30
12757;BME280;31601;48.042;12.240;2023-04-23T08:40:44;95698.00;;;15.97;61.97
12757;BME280;31601;48.042;12.240;2023-04-23T08:43:15;95705.88;;;15.61;62.44
12757;BME280;31601;48.042;12.240;2023-04-23T08:45:43;95706.88;;;15.79;61.75
12757;BME280;31601;48.042;12.240;2023-04-23T08:48:13;95705.34;;;16.18;61.67
12757;BME280;31601;48.042;12.240;2023-04-23T08:50:41;95713.63;;;16.34;61.14
12757;BME280;31601;48.042;12.240;2023-04-23T08:53:08;95719.69;;;16.34;61.74
12757;BME280;31601;48.042;12.240;2023-04-23T08:55:35;95717.59;;;16.60;61.00
12757;BME280;31601;48.042;12.240;2023-04-23T08:58:01;95716.75;;;16.71;60.28
12757;BME280;31601;48.042;12.240;2023-04-23T09:00:31;95709.25;;;16.27;60.86
12757;BME280;31601;48.042;12.240;2023-04-23T09:02:58;95713.63;;;16.34;61.60
12757;BME280;31601;48.042;12.240;2023-04-23T09:05:26;95713.06;;;16.32;61.98
12757;BME280;31601;48.042;12.240;2023-04-23T09:07:53;95710.44;;;16.60;61.04
12757;BME280;31601;48.042;12.240;2023-04-23T09:10:19;95715.56;;;16.79;60.49
12757;BME280;31601;48.042;12.240;2023-04-23T09:12:46;95713.16;;;16.37;60.08
12757;BME280;31601;48.042;12.240;2023-04-23T09:15:13;95710.03;;;16.80;59.79
12757;BME280;31601;48.042;12.240;2023-04-23T09:17:41;95709.13;;;17.15;58.89
12757;BME280;31601;48.042;12.240;2023-04-23T09:20:09;95701.94;;;17.45;58.59
12757;BME280;31601;48.042;12.240;2023-04-23T09:22:44;95700.59;;;16.96;58.74
12757;BME280;31601;48.042;12.240;2023-04-23T09:25:12;95700.94;;;17.17;58.92
12757;BME280;31601;48.042;12.240;2023-04-23T09:27:40;95702.34;;;17.36;58.04
12757;BME280;31601;48.042;12.240;2023-04-23T09:30:08;95698.88;;;17.36;57.33
12757;BME280;31601;48.042;12.240;2023-04-23T09:32:36;95693.81;;;17.51;56.96
12757;BME280;31601;48.042;12.240;2023-04-23T09:35:04;95688.03;;;17.71;56.96
12757;BME280;31601;48.042;12.240;2023-04-23T09:37:31;95690.53;;;17.61;56.61
12757;BME280;31601;48.042;12.240;2023-04-23T09:39:59;95695.91;;;17.49;57.30
12757;BME280;31601;48.042;12.240;2023-04-23T09:42:26;95690.22;;;16.95;57.29
12757;BME280;31601;48.042;12.240;2023-04-23T09:44:55;95685.16;;;16.93;57.52
12757;BME280;31601;48.042;12.240;2023-04-23T09:47:22;95681.56;;;16.99;58.06
12757;BME280;31601;48.042;12.240;2023-04-23T09:49:49;95681.25;;;16.84;58.96
12757;BME280;31601;48.042;12.240;2023-04-23T09:52:16;95683.13;;;16.72;59.07
12757;BME280;31601;48.042;12.240;2023-04-23T09:54:43;95675.44;;;16.99;58.10
12757;BME280;31601;48.042;12.240;2023-04-23T09:57:11;95676.28;;;16.88;57.68
12757;BME280;31601;48.042;12.240;2023-04-23T09:59:38;95674.56;;;16.93;57.48
12757;BME280;31601;48.042;12.240;2023-04-23T10:02:06;95670.44;;;16.74;58.95
12757;BME280;31601;48.042;12.240;2023-04-23T10:04:33;95664.50;;;17.24;57.97
12757;BME280;31601;48.042;12.240;2023-04-23T10:07:01;95663.81;;;17.17;56.55
12757;BME280;31601;48.042;12.240;2023-04-23T10:09:29;95663.69;;;17.41;55.21
12757;BME280;31601;48.042;12.240;2023-04-23T10:11:57;95661.16;;;17.85;54.75
12757;BME280;31601;48.042;12.240;2023-04-23T10:14:26;95654.03;;;17.34;54.73
12757;BME280;31601;48.042;12.240;2023-04-23T10:16:56;95654.28;;;18.23;53.24
12757;BME280;31601;48.042;12.240;2023-04-23T10:19:23;95654.53;;;18.43;51.78
12757;BME280;31601;48.042;12.240;2023-04-23T10:21:53;95644.88;;;19.09;51.37
12757;BME280;31601;48.042;12.240;2023-04-23T10:24:23;95638.56;;;18.88;50.89
12757;BME280;31601;48.042;12.240;2023-04-23T10:26:50;95634.97;;;18.77;49.84
12757;BME280;31601;48.042;12.240;2023-04-23T10:29:20;95631.97;;;19.23;49.95
12757;BME280;31601;48.042;12.240;2023-04-23T10:31:52;95634.38;;;19.24;50.03
12757;BME280;31601;48.042;12.240;2023-04-23T10:34:19;95630.63;;;18.43;51.00
12757;BME280;31601;48.042;12.240;2023-04-23T10:36:46;95614.75;;;19.68;49.39
12757;BME280;31601;48.042;12.240;2023-04-23T10:39:13;95618.56;;;20.35;47.83
12757;BME280;31601;48.042;12.240;2023-04-23T10:41:42;95609.84;;;20.55;46.58
12757;BME280;31601;48.042;12.240;2023-04-23T10:44:10;95616.63;;;20.89;46.60
12757;BME280;31601;48.042;12.240;2023-04-23T10:46:37;95606.75;;;20.79;45.35
12757;BME280;31601;48.042;12.240;2023-04-23T10:49:06;95605.69;;;20.12;46.29
12757;BME280;31601;48.042;12.240;2023-04-23T10:51:33;95603.94;;;19.47;46.95
12757;BME280;31601;48.042;12.240;2023-04-23T10:54:01;95600.81;;;19.18;49.02
12757;BME280;31601;48.042;12.240;2023-04-23T10:56:29;95588.78;;;19.85;48.46
12757;BME280;31601;48.042;12.240;2023-04-23T10:58:55;95594.94;;;19.48;48.04
12757;BME280;31601;48.042;12.240;2023-04-23T11:01:23;95591.88;;;19.72;47.78
12757;BME280;31601;48.042;12.240;2023-04-23T11:03:51;95582.78;;;20.11;48.71
12757;BME280;31601;48.042;12.240;2023-04-23T11:06:50;95585.38;;;20.74;46.30
12757;BME280;31601;48.042;12.240;2023-04-23T11:09:31;95587.47;;;20.62;45.81
12757;BME280;31601;48.042;12.240;2023-04-23T11:11:58;95573.84;;;19.79;46.51
12757;BME280;31601;48.042;12.240;2023-04-23T11:14:50;95580.53;;;20.45;46.72
12757;BME280;31601;48.042;12.240;2023-04-23T11:17:17;95576.34;;;20.90;46.48
12757;BME280;31601;48.042;12.240;2023-04-23T11:20:08;95559.28;;;21.22;44.11
12757;BME280;31601;48.042;12.240;2023-04-23T11:22:37;95564.97;;;20.11;45.62
12757;BME280;31601;48.042;12.240;2023-04-23T11:25:08;95557.16;;;20.88;45.71
12757;BME280;31601;48.042;12.240;2023-04-23T11:27:37;95551.00;;;21.50;44.62
12757;BME280;31601;48.042;12.240;2023-04-23T11:30:05;95548.53;;;21.89;44.20
12757;BME280;31601;48.042;12.240;2023-04-23T11:32:31;95551.81;;;21.19;43.23
12757;BME280;31601;48.042;12.240;2023-04-23T11:35:00;95537.44;;;21.15;43.46
12757;BME280;31601;48.042;12.240;2023-04-23T11:37:29;95542.44;;;21.42;43.22
12757;BME280;31601;48.042;12.240;2023-04-23T11:39:57;95532.81;;;20.49;45.56
12757;BME280;31601;48.042;12.240;2023-04-23T11:42:32;95534.28;;;19.50;47.83
12757;BME280;31601;48.042;12.240;2023-04-23T11:45:06;95524.72;;;19.49;47.83
12757;BME280;31601;48.042;12.240;2023-04-23T11:47:33;95519.44;;;20.13;47.02
12757;BME280;31601;48.042;12.240;2023-04-23T11:50:00;95519.78;;;20.63;46.40
12757;BME280;31601;48.042;12.240;2023-04-23T11:52:26;95508.81;;;19.65;46.76
12757;BME280;31601;48.042;12.240;2023-04-23T11:54:53;95505.16;;;19.76;48.30
12757;BME280;31601;48.042;12.240;2023-04-23T11:57:21;95500.84;;;19.70;47.37
12757;BME280;31601;48.042;12.240;2023-04-23T11:59:47;95492.41;;;19.78;47.87
12757;BME280;31601;48.042;12.240;2023-04-23T12:02:14;95491.59;;;19.78;48.73
12757;BME280;31601;48.042;12.240;2023-04-23T12:04:42;95491.59;;;19.78;48.07
12757;BME280;31601;48.042;12.240;2023-04-23T12:07:09;95488.75;;;20.00;47.02
12757;BME280;31601;48.042;12.240;2023-04-23T12:09:35;95475.25;;;20.27;45.98
12757;BME280;31601;48.042;12.240;2023-04-23T12:12:02;95470.44;;;19.50;47.52
12757;BME280;31601;48.042;12.240;2023-04-23T12:14:30;95477.38;;;18.44;49.93
12757;BME280;31601;48.042;12.240;2023-04-23T12:17:08;95470.78;;;18.84;50.88
12757;BME280;31601;48.042;12.240;2023-04-23T12:19:35;95462.78;;;19.11;48.86
12757;BME280;31601;48.042;12.240;2023-04-23T12:22:03;95462.34;;;19.25;48.58
12757;BME280;31601;48.042;12.240;2023-04-23T12:24:44;95460.13;;;19.17;49.77
12757;BME280;31601;48.042;12.240;2023-04-23T12:27:13;95459.53;;;19.52;48.91
12757;BME280;31601;48.042;12.240;2023-04-23T12:29:42;95448.16;;;19.72;46.76
12757;BME280;31601;48.042;12.240;2023-04-23T12:32:09;95450.28;;;19.70;46.73
12757;BME280;31601;48.042;12.240;2023-04-23T12:34:36;95445.66;;;20.18;47.52
12757;BME280;31601;48.042;12.240;2023-04-23T12:37:05;95441.72;;;20.72;45.74
12757;BME280;31601;48.042;12.240;2023-04-23T12:39:33;95425.22;;;20.65;45.95
12757;BME280;31601;48.042;12.240;2023-04-23T12:42:01;95436.56;;;19.94;45.48
12757;BME280;31601;48.042;12.240;2023-04-23T12:44:29;95436.03;;;19.97;46.14
12757;BME280;31601;48.042;12.240;2023-04-23T12:46:58;95436.53;;;19.83;46.60
12757;BME280;31601;48.042;12.240;2023-04-23T12:49:25;95429.66;;;20.03;45.78
12757;BME280;31601;48.042;12.240;2023-04-23T12:51:52;95426.03;;;19.61;45.22